EDT,Max TemperatureF,Mean TemperatureF,Min TemperatureF,Max Dew PointF,MeanDew PointF,Min DewpointF,Max Humidity, Mean Humidity, Min Humidity, Max Sea Level PressureIn, Mean Sea Level PressureIn, Min Sea Level PressureIn, Max VisibilityMiles, Mean VisibilityMiles, Min VisibilityMiles, Max Wind SpeedMPH, Mean Wind SpeedMPH, Max Gust SpeedMPH,PrecipitationIn, CloudCover, Events, WindDirDegrees
2014-3-1,50,34,17,23,16,8,74,51,28,30.38,30.29,30.22,10,10,10,13,2,16,0.00,3,,216
2014-3-2,67,47,27,52,38,22,100,70,40,30.20,30.02,29.90,10,9,2,23,7,28,0.07,5,Rain,189
2014-3-3,45,30,14,45,25,9,100,81,62,30.34,30.09,29.89,10,5,0,24,12,31,0.72,7,Fog-Rain-Snow,37
2014-3-4,33,21,9,16,9,5,84,59,33,30.42,30.32,30.23,10,10,10,14,3,16,0.00,0,,49
2014-3-5,48,35,22,21,17,14,81,56,30,30.34,30.23,30.16,10,10,10,12,3,28,0.00,0,,47
2014-3-6,40,35,29,22,17,14,69,55,40,30.49,30.37,30.26,10,10,10,24,12,30,0.00,3,,46
2014-3-7,45,38,30,31,28,20,85,72,58,30.23,30.07,29.96,10,8,2,22,8,28,0.21,7,Rain-Snow,15
2014-3-8,70,48,25,41,30,23,92,57,22,30.04,29.98,29.92,10,9,6,15,3,28,0.00,0,,250
2014-3-9,61,48,34,35,29,21,64,44,23,30.09,30.02,29.94,10,10,10,14,5,21,0.00,0,,265
2014-3-10,73,53,33,34,26,21,69,43,16,30.01,29.87,29.75,10,10,10,14,4,25,0.00,0,,233
2014-3-11,79,64,48,38,34,29,51,34,16,29.77,29.71,29.63,10,10,10,14,5,35,0.00,0,,239
2014-3-12,67,53,39,59,44,20,93,68,43,29.65,29.39,29.17,10,8,2,23,11,41,0.23,5,Rain,221
2014-3-13,39,34,28,19,6,-2,46,30,7,30.22,29.97,29.63,10,10,10,14,10,32,0.00,1,,286
2014-3-14,63,45,26,21,14,9,55,35,15,30.27,30.14,29.99,10,10,10,28,10,35,0.00,0,,203
2014-3-15,72,57,41,32,26,22,49,33,17,30.05,29.96,29.91,10,10,10,18,7,29,0.00,1,,238
2014-3-16,49,41,33,34,30,25,92,67,42,30.11,30.01,29.95,10,6,0,22,10,37,0.38,6,Fog-Rain-Snow,35
2014-3-17,33,31,29,30,26,23,85,79,72,30.07,29.96,29.91,10,7,1,21,13,26,0.06,8,Rain-Snow,35
2014-3-18,42,36,30,34,29,26,89,78,67,30.22,30.10,30.01,10,7,2,20,10,24,0.05,8,Rain-Snow,30
2014-3-19,49,43,36,43,37,29,92,84,76,30.21,30.10,29.91,10,6,1,13,5,,0.10,8,Rain,57
2014-3-20,64,51,37,41,28,15,89,53,16,30.04,29.96,29.90,10,10,6,17,6,26,0.00,0,,256
2014-3-21,73,53,32,28,26,22,59,39,19,30.10,30.04,29.98,10,10,10,17,7,21,0.00,0,,220
2014-3-22,75,60,45,36,32,29,50,37,23,29.99,29.94,29.89,10,10,10,17,6,29,0.00,0,,223
2014-3-23,52,42,31,40,34,28,89,65,41,30.17,30.06,29.98,10,7,1,14,3,17,0.21,4,Rain,52
2014-3-24,50,39,28,26,14,10,78,50,21,30.30,30.19,30.09,10,10,10,14,3,18,0.00,1,,217
2014-3-25,38,31,24,31,26,17,85,68,51,30.09,29.93,29.81,10,4,0,13,5,15,0.52,7,Fog-Snow,18
2014-3-26,44,35,26,20,10,5,63,43,22,30.34,30.17,29.97,10,10,10,14,6,23,0.00,2,,290
2014-3-27,59,40,21,24,18,13,68,45,21,30.46,30.35,30.22,10,10,10,21,7,26,0.00,0,,190
2014-3-28,67,56,44,53,45,26,80,61,42,30.21,30.13,30.07,10,10,10,26,9,35,T,7,Rain,196
2014-3-29,64,58,52,61,56,50,93,85,77,30.11,29.86,29.53,10,4,0,10,4,16,0.36,8,Fog-Rain,164
2014-3-30,53,47,40,46,32,22,74,52,30,29.91,29.74,29.58,10,10,4,22,9,38,0.02,6,Rain,311
2014-3-31,76,60,44,33,22,15,50,32,14,30.10,30.05,29.94,10,10,10,18,5,26,0.00,0,,321